createdAt,value
2019-03-20T00:01:52.604Z,69.29
2019-03-20T00:04:23.780Z,69.44
2019-03-20T00:06:55.957Z,69.39
2019-03-20T00:09:26.993Z,69.59
2019-03-20T00:11:58.141Z,70.14
2019-03-20T00:14:29.280Z,70.14
2019-03-20T00:17:00.329Z,70.59
2019-03-20T00:19:31.473Z,70.89
2019-03-20T00:22:02.598Z,71.22
2019-03-20T00:24:33.758Z,71.24
2019-03-20T00:27:04.864Z,71.75
2019-03-20T00:29:36.048Z,72.14
2019-03-20T00:32:07.186Z,72.22
2019-03-20T00:34:39.353Z,72.38
2019-03-20T00:37:10.567Z,72.25
2019-03-20T00:39:41.652Z,72.48
2019-03-20T00:42:12.772Z,73.11
2019-03-20T00:44:44.652Z,73.27
2019-03-20T00:47:15.785Z,73.25
2019-03-20T00:49:46.946Z,73.33
2019-03-20T00:52:17.974Z,73.25
2019-03-20T00:54:49.019Z,73.26
2019-03-20T00:57:20.158Z,73.49
2019-03-20T00:59:51.303Z,73.79
2019-03-20T01:02:22.448Z,74.26
2019-03-20T01:04:53.594Z,74.25
2019-03-20T01:07:25.728Z,74.34
2019-03-20T01:09:56.798Z,74.52
2019-03-20T01:12:27.943Z,74.59
2019-03-20T01:14:59.007Z,74.63
2019-03-20T01:17:30.043Z,74.63
2019-03-20T01:20:01.069Z,74.97
2019-03-20T01:22:33.238Z,75.31
2019-03-20T01:25:06.459Z,75.54
2019-03-20T01:27:37.462Z,75.56
2019-03-20T01:30:13.031Z,75.62
2019-03-20T01:32:44.158Z,75.56
2019-03-20T01:35:23.553Z,75.68
2019-03-20T01:37:47.914Z,75.84
2019-03-20T01:40:18.972Z,76.00
2019-03-20T01:42:50.080Z,76.28
2019-03-20T01:45:21.083Z,76.24
2019-03-20T01:47:52.267Z,76.13
2019-03-20T01:50:23.445Z,76.14
2019-03-20T01:52:54.431Z,76.26
2019-03-20T01:55:25.529Z,76.36
2019-03-20T01:57:56.625Z,76.39
2019-03-20T02:00:27.739Z,76.06
2019-03-20T02:02:58.812Z,75.78
2019-03-20T02:05:35.784Z,75.84
2019-03-20T02:08:03.665Z,75.68
2019-03-20T02:10:34.829Z,75.48
2019-03-20T02:13:05.844Z,75.54
2019-03-20T02:15:39.114Z,75.27
2019-03-20T02:18:09.908Z,75.40
2019-03-20T02:20:41.055Z,75.66
2019-03-20T02:23:12.164Z,75.54
2019-03-20T02:25:43.177Z,75.56
2019-03-20T02:28:14.254Z,75.66
2019-03-20T02:30:45.340Z,76.11
2019-03-20T02:33:16.502Z,76.14
2019-03-20T02:35:51.970Z,75.75
2019-03-20T02:38:20.178Z,76.23
2019-03-20T02:40:51.206Z,76.07
2019-03-20T02:43:22.181Z,75.88
2019-03-20T02:45:53.192Z,76.30
2019-03-20T02:48:24.441Z,76.70
2019-03-20T02:50:55.474Z,76.84
2019-03-20T02:53:26.621Z,76.96
2019-03-20T02:55:57.669Z,76.90
2019-03-20T02:58:29.815Z,76.93
2019-03-20T03:01:00.856Z,76.89
2019-03-20T03:03:33.035Z,76.58
2019-03-20T03:06:07.033Z,76.40
2019-03-20T03:08:37.887Z,76.65
2019-03-20T03:11:08.861Z,77.47
2019-03-20T03:13:39.961Z,77.62
2019-03-20T03:16:11.008Z,77.66
2019-03-20T03:18:42.104Z,77.22
2019-03-20T03:21:13.185Z,77.65
2019-03-20T03:23:44.197Z,77.59
2019-03-20T03:26:15.267Z,77.62
2019-03-20T03:28:46.470Z,77.75
2019-03-20T03:31:17.556Z,77.76
2019-03-20T03:33:48.645Z,78.01
2019-03-20T03:36:21.601Z,78.33
2019-03-20T03:38:52.525Z,78.10
2019-03-20T03:41:24.693Z,78.21
2019-03-20T03:43:55.854Z,78.03
2019-03-20T03:46:27.978Z,78.20
2019-03-20T03:48:59.246Z,78.23
2019-03-20T03:51:30.240Z,78.71
2019-03-20T03:54:01.392Z,78.59
2019-03-20T03:56:32.482Z,78.90
2019-03-20T03:59:03.569Z,78.95
2019-03-20T04:01:34.561Z,79.36
2019-03-20T04:04:05.650Z,79.69
2019-03-20T04:06:36.850Z,79.73
2019-03-20T04:09:07.928Z,79.96
2019-03-20T04:11:38.903Z,79.83
2019-03-20T04:14:10.020Z,79.91
2019-03-20T04:16:41.393Z,80.24
2019-03-20T04:19:12.632Z,80.10
2019-03-20T04:21:43.722Z,80.30
2019-03-20T04:24:14.897Z,79.86
2019-03-20T04:26:45.909Z,79.83
2019-03-20T04:29:17.003Z,80.00
2019-03-20T04:31:48.084Z,80.05
2019-03-20T04:34:19.173Z,80.35
2019-03-20T04:36:50.233Z,80.52
2019-03-20T04:39:21.257Z,80.16
2019-03-20T04:41:52.240Z,80.49
2019-03-20T04:44:23.225Z,80.63
2019-03-20T04:46:54.431Z,81.47
2019-03-20T04:49:25.643Z,82.53
2019-03-20T04:51:56.736Z,83.98
2019-03-20T04:54:27.982Z,84.73
2019-03-20T04:56:59.027Z,85.15
2019-03-20T04:59:30.099Z,85.27
2019-03-20T05:02:01.199Z,85.44
2019-03-20T05:04:33.430Z,85.27
2019-03-20T05:07:04.526Z,85.30
2019-03-20T05:09:35.704Z,85.47
2019-03-20T05:12:06.724Z,85.70
2019-03-20T05:14:37.890Z,85.84
2019-03-20T05:17:08.955Z,85.40
2019-03-20T05:19:40.247Z,84.79
2019-03-20T05:22:11.376Z,84.64
2019-03-20T05:24:42.465Z,85.14
2019-03-20T05:27:13.560Z,84.96
2019-03-20T05:29:44.757Z,84.44
2019-03-20T05:32:15.860Z,84.18
2019-03-20T05:34:47.043Z,84.54
2019-03-20T05:37:18.137Z,85.29
2019-03-20T05:39:49.298Z,85.63
2019-03-20T05:42:20.332Z,85.08
2019-03-20T05:44:51.414Z,85.42
2019-03-20T05:47:22.557Z,84.70
2019-03-20T05:49:53.801Z,85.42
2019-03-20T05:52:25.161Z,84.51
2019-03-20T05:54:56.358Z,84.45
2019-03-20T05:57:27.450Z,84.33
2019-03-20T05:59:59.540Z,83.82
2019-03-20T06:02:30.673Z,82.79
2019-03-20T06:05:01.733Z,83.01
2019-03-20T06:07:32.888Z,83.62
2019-03-20T06:10:09.590Z,82.86
2019-03-20T06:12:40.724Z,83.03
2019-03-20T06:15:11.808Z,83.09
2019-03-20T06:17:42.902Z,82.93
2019-03-20T06:20:14.976Z,81.63
2019-03-20T06:22:46.120Z,82.23
2019-03-20T06:25:17.559Z,82.66
2019-03-20T06:27:50.005Z,83.39
2019-03-20T06:30:21.786Z,82.85
2019-03-20T06:32:52.874Z,82.12
2019-03-20T06:35:23.865Z,82.74
2019-03-20T06:37:55.137Z,82.38
2019-03-20T06:40:26.133Z,83.34
2019-03-20T06:42:57.244Z,82.47
2019-03-20T06:45:28.902Z,82.24
2019-03-20T06:48:00.106Z,82.47
2019-03-20T06:50:31.346Z,82.01
2019-03-20T06:53:02.426Z,82.11
2019-03-20T06:55:34.602Z,82.06
2019-03-20T06:58:05.801Z,81.47
2019-03-20T07:00:45.621Z,81.48
2019-03-20T07:03:37.923Z,81.63
2019-03-20T07:06:18.041Z,81.87
2019-03-20T07:08:58.453Z,81.65
2019-03-20T07:11:28.606Z,81.49
2019-03-20T07:13:59.715Z,81.97
2019-03-20T07:16:30.818Z,80.74
2019-03-20T07:19:01.823Z,79.15
2019-03-20T07:21:32.830Z,79.63
2019-03-20T07:24:03.858Z,79.32
2019-03-20T07:26:34.992Z,78.37
2019-03-20T07:29:06.047Z,78.41
2019-03-20T07:31:37.009Z,78.56
2019-03-20T07:34:08.106Z,79.09
2019-03-20T07:36:39.360Z,78.64
2019-03-20T07:39:10.447Z,77.84
2019-03-20T07:41:41.560Z,77.75
2019-03-20T07:44:12.663Z,77.12
2019-03-20T07:46:43.647Z,76.62
2019-03-20T07:49:14.668Z,75.51
2019-03-20T07:51:45.824Z,76.89
2019-03-20T07:54:16.874Z,75.07
2019-03-20T07:56:47.995Z,76.14
2019-03-20T07:59:19.082Z,75.78
2019-03-20T08:01:50.126Z,74.05
2019-03-20T08:04:21.436Z,75.61
2019-03-20T08:06:52.842Z,76.42
2019-03-20T08:09:25.651Z,75.05
2019-03-20T08:11:56.745Z,76.69
2019-03-20T08:14:27.770Z,76.22
2019-03-20T08:16:58.741Z,77.65
2019-03-20T08:19:29.708Z,76.64
2019-03-20T08:22:00.759Z,76.27
2019-03-20T08:24:32.308Z,76.03
2019-03-20T08:27:03.369Z,74.41
2019-03-20T08:29:34.454Z,74.94
2019-03-20T08:32:05.490Z,75.51
2019-03-20T08:34:36.630Z,75.58
2019-03-20T08:37:07.735Z,75.65
2019-03-20T08:39:38.814Z,75.08
2019-03-20T08:42:09.922Z,74.16
2019-03-20T08:44:41.049Z,74.23
2019-03-20T08:47:12.083Z,73.88
2019-03-20T08:49:43.378Z,73.90
2019-03-20T08:52:14.446Z,72.44
2019-03-20T08:54:45.503Z,73.31
2019-03-20T08:57:16.685Z,72.82
2019-03-20T08:59:47.857Z,73.27
2019-03-20T09:02:18.888Z,74.13
2019-03-20T09:04:50.019Z,72.68
2019-03-20T09:07:21.058Z,72.30
2019-03-20T09:09:52.424Z,72.12
2019-03-20T09:12:23.605Z,71.71
2019-03-20T09:14:54.786Z,71.30
2019-03-20T09:17:25.826Z,70.67
2019-03-20T09:19:56.977Z,70.59
2019-03-20T09:22:28.104Z,69.98
2019-03-20T09:24:59.149Z,69.06
2019-03-20T09:27:30.317Z,69.26
2019-03-20T09:30:01.443Z,69.30
2019-03-20T09:32:32.494Z,69.33
2019-03-20T09:35:06.862Z,68.96
2019-03-20T09:37:36.939Z,69.18
2019-03-20T09:40:24.828Z,68.47
2019-03-20T09:42:56.016Z,68.33
2019-03-20T09:45:27.126Z,68.53
2019-03-20T09:47:58.407Z,68.43
2019-03-20T09:50:29.812Z,68.47
2019-03-20T09:53:00.867Z,68.54
2019-03-20T09:55:32.034Z,68.29
2019-03-20T09:58:11.191Z,67.86
2019-03-20T10:00:35.943Z,67.79
2019-03-20T10:03:07.110Z,67.75
2019-03-20T10:05:38.266Z,67.27
2019-03-20T10:08:09.317Z,66.93
2019-03-20T10:10:40.354Z,66.66
2019-03-20T10:13:11.475Z,66.08
2019-03-20T10:15:42.496Z,65.84
2019-03-20T10:18:13.604Z,65.53
2019-03-20T10:20:44.749Z,65.01
2019-03-20T10:23:16.120Z,64.27
2019-03-20T10:25:47.248Z,63.59
2019-03-20T10:28:18.327Z,63.09
2019-03-20T10:30:49.370Z,62.75
2019-03-20T10:33:20.526Z,62.41
2019-03-20T10:35:51.682Z,61.80
2019-03-20T10:38:22.698Z,61.26
2019-03-20T10:40:53.782Z,59.98
2019-03-20T10:43:24.892Z,59.86
2019-03-20T10:45:55.973Z,60.16
2019-03-20T10:48:27.178Z,59.77
2019-03-20T10:50:58.248Z,59.30
2019-03-20T10:53:29.369Z,58.94
2019-03-20T10:56:00.876Z,58.54
2019-03-20T10:58:31.991Z,58.11
2019-03-20T11:01:03.130Z,57.30
2019-03-20T11:03:35.298Z,56.51
2019-03-20T11:06:06.466Z,56.73
2019-03-20T11:08:37.569Z,56.34
2019-03-20T11:11:08.657Z,56.20
2019-03-20T11:13:39.748Z,55.93
2019-03-20T11:16:10.925Z,53.46
2019-03-20T11:18:42.126Z,54.01
2019-03-20T11:21:13.296Z,54.03
2019-03-20T11:23:44.433Z,53.92
2019-03-20T11:26:15.541Z,53.91
2019-03-20T11:28:46.621Z,54.07
2019-03-20T11:31:17.672Z,54.42
2019-03-20T11:33:48.668Z,55.02
2019-03-20T11:36:19.663Z,55.48
2019-03-20T11:38:50.723Z,55.76
2019-03-20T11:41:21.831Z,55.55
2019-03-20T11:43:52.940Z,55.55
2019-03-20T11:46:24.402Z,55.28
2019-03-20T11:48:55.390Z,55.26
2019-03-20T11:51:26.450Z,55.55
2019-03-20T11:53:57.557Z,55.06
2019-03-20T11:56:29.004Z,54.87
2019-03-20T11:59:00.061Z,54.58
2019-03-20T12:01:31.254Z,54.72
2019-03-20T12:04:02.317Z,54.97
2019-03-20T12:06:33.296Z,55.02
2019-03-20T12:09:07.526Z,55.16
2019-03-20T12:11:45.739Z,55.07
2019-03-20T12:14:11.540Z,54.56
2019-03-20T12:16:42.594Z,54.37
2019-03-20T12:19:13.772Z,54.10
2019-03-20T12:21:44.937Z,53.96
2019-03-20T12:24:16.083Z,53.35
2019-03-20T12:26:47.275Z,52.95
2019-03-20T12:29:18.367Z,52.55
2019-03-20T12:31:49.416Z,52.60
2019-03-20T12:34:20.603Z,52.34
2019-03-20T12:36:51.910Z,52.50
2019-03-20T12:39:22.981Z,52.64
2019-03-20T12:41:54.059Z,52.89
2019-03-20T12:44:25.194Z,52.94
2019-03-20T12:46:56.282Z,52.69
2019-03-20T12:49:27.363Z,52.51
2019-03-20T12:51:58.468Z,52.36
2019-03-20T12:54:29.445Z,52.46
2019-03-20T12:57:00.693Z,52.55
2019-03-20T12:59:31.833Z,52.52
2019-03-20T13:02:02.820Z,52.24
2019-03-20T13:04:34.005Z,52.72
2019-03-20T13:07:05.187Z,52.75
2019-03-20T13:09:36.296Z,52.73
2019-03-20T13:12:07.415Z,52.82
2019-03-20T13:14:40.906Z,52.68
2019-03-20T13:17:11.858Z,52.99
2019-03-20T13:19:43.065Z,52.81
2019-03-20T13:22:14.138Z,53.01
2019-03-20T13:24:47.778Z,53.10
2019-03-20T13:27:21.024Z,53.34
2019-03-20T13:29:52.083Z,52.91
2019-03-20T13:32:23.276Z,53.04
2019-03-20T13:34:54.371Z,52.98
2019-03-20T13:37:25.422Z,53.01
2019-03-20T13:39:56.515Z,52.91
2019-03-20T13:42:27.598Z,52.71
2019-03-20T13:44:58.790Z,52.57
2019-03-20T13:47:29.988Z,52.42
2019-03-20T13:50:01.199Z,52.47
2019-03-20T13:52:32.337Z,52.29
2019-03-20T13:55:04.287Z,52.37
2019-03-20T13:57:35.663Z,52.27
2019-03-20T14:00:16.129Z,52.25
2019-03-20T14:02:47.298Z,52.51
2019-03-20T14:05:18.376Z,52.79
2019-03-20T14:07:49.380Z,52.62
2019-03-20T14:10:25.678Z,52.01
2019-03-20T14:12:56.864Z,51.84
2019-03-20T14:15:28.087Z,51.93
2019-03-20T14:17:59.163Z,51.89
2019-03-20T14:20:31.093Z,51.42
2019-03-20T14:23:02.131Z,51.12
2019-03-20T14:25:33.161Z,51.67
2019-03-20T14:28:04.331Z,51.43
2019-03-20T14:30:35.392Z,51.19
2019-03-20T14:33:06.512Z,51.18
2019-03-20T14:35:37.982Z,51.15
2019-03-20T14:38:09.144Z,51.38
2019-03-20T14:40:40.235Z,51.10
2019-03-20T14:43:11.278Z,50.96
2019-03-20T14:45:42.296Z,50.75
2019-03-20T14:48:13.558Z,50.46
2019-03-20T14:50:44.844Z,51.19
2019-03-20T14:53:17.049Z,51.45
2019-03-20T14:55:48.214Z,51.45
2019-03-20T14:58:19.441Z,51.57
2019-03-20T15:00:50.857Z,51.31
2019-03-20T15:03:22.163Z,51.25
2019-03-20T15:05:53.666Z,51.56
2019-03-20T15:08:25.166Z,51.65
2019-03-20T15:10:56.312Z,51.53
2019-03-20T15:13:27.828Z,51.70
2019-03-20T15:16:07.821Z,52.24
2019-03-20T15:18:38.983Z,52.90
2019-03-20T15:21:11.136Z,51.46
2019-03-20T15:23:42.127Z,49.94
2019-03-20T15:26:13.314Z,50.07
2019-03-20T15:28:44.441Z,53.42
2019-03-20T15:31:17.214Z,54.64
2019-03-20T15:33:48.309Z,55.79
2019-03-20T15:36:19.559Z,56.82
2019-03-20T15:38:50.930Z,57.16
2019-03-20T15:41:21.887Z,58.23
2019-03-20T15:44:02.104Z,58.63
2019-03-20T15:46:25.831Z,58.90
2019-03-20T15:48:56.954Z,59.29
2019-03-20T15:51:28.049Z,59.53
2019-03-20T15:53:59.067Z,60.02
2019-03-20T15:56:30.147Z,61.46
2019-03-20T15:59:01.290Z,62.84
2019-03-20T16:01:32.484Z,63.49
2019-03-20T16:04:04.446Z,64.18
2019-03-20T16:06:35.490Z,64.56
2019-03-20T16:09:08.526Z,65.01
2019-03-20T16:11:39.655Z,65.35
2019-03-20T16:14:10.988Z,65.76
2019-03-20T16:16:42.133Z,65.80
2019-03-20T16:19:13.237Z,66.05
2019-03-20T16:21:44.425Z,66.20
2019-03-20T16:24:15.568Z,66.32
2019-03-20T16:26:46.581Z,66.29
2019-03-20T16:29:17.729Z,66.63
2019-03-20T16:31:48.758Z,66.77
2019-03-20T16:34:19.805Z,66.85
2019-03-20T16:36:50.872Z,66.84
2019-03-20T16:39:22.116Z,67.17
2019-03-20T16:41:53.241Z,67.04
2019-03-20T16:44:24.215Z,67.39
2019-03-20T16:46:55.366Z,67.81
2019-03-20T16:49:26.455Z,67.73
2019-03-20T16:51:58.620Z,68.06
2019-03-20T16:54:29.660Z,68.08
2019-03-20T16:57:00.820Z,68.03
2019-03-20T16:59:32.481Z,68.35
2019-03-20T17:02:03.625Z,68.57
2019-03-20T17:04:34.957Z,68.39
2019-03-20T17:07:06.611Z,68.57
2019-03-20T17:09:37.902Z,68.67
2019-03-20T17:12:09.017Z,68.60
2019-03-20T17:14:41.734Z,69.02
2019-03-20T17:17:14.104Z,69.27
2019-03-20T17:19:45.158Z,69.15
2019-03-20T17:22:16.447Z,69.13
2019-03-20T17:24:47.642Z,69.22
2019-03-20T17:27:18.790Z,69.62
2019-03-20T17:29:50.015Z,69.87
2019-03-20T17:32:21.449Z,69.73
2019-03-20T17:34:52.445Z,69.98
2019-03-20T17:37:23.595Z,69.93
2019-03-20T17:39:54.654Z,70.07
2019-03-20T17:42:25.938Z,70.20
2019-03-20T17:44:56.943Z,70.37
2019-03-20T17:47:27.973Z,70.46
2019-03-20T17:49:59.137Z,70.84
2019-03-20T17:52:31.184Z,71.10
2019-03-20T17:55:02.271Z,71.01
2019-03-20T17:57:33.267Z,70.87
2019-03-20T18:00:13.149Z,70.80
2019-03-20T18:02:44.292Z,70.92
2019-03-20T18:05:15.450Z,70.56
2019-03-20T18:07:46.566Z,70.98
2019-03-20T18:10:17.784Z,70.78
2019-03-20T18:12:48.845Z,70.83
2019-03-20T18:15:21.032Z,70.62
2019-03-20T18:17:52.123Z,70.44
2019-03-20T18:20:23.090Z,70.33
2019-03-20T18:22:54.109Z,71.17
2019-03-20T18:25:25.297Z,71.68
2019-03-20T18:27:56.549Z,72.09
2019-03-20T18:30:32.593Z,72.49
2019-03-20T18:33:04.692Z,72.54
2019-03-20T18:35:35.745Z,72.88
2019-03-20T18:38:07.559Z,73.20
2019-03-20T18:40:38.640Z,73.26
2019-03-20T18:43:09.784Z,73.00
2019-03-20T18:45:40.921Z,73.00
2019-03-20T18:48:12.038Z,73.08
2019-03-20T18:50:44.140Z,73.50
2019-03-20T18:53:15.215Z,73.71
2019-03-20T18:55:46.601Z,74.13
2019-03-20T18:58:17.882Z,74.07
2019-03-20T19:00:48.989Z,73.83
2019-03-20T19:03:26.507Z,73.81
2019-03-20T19:06:06.827Z,73.79
2019-03-20T19:08:37.971Z,74.04
2019-03-20T19:11:09.112Z,73.97
2019-03-20T19:13:40.252Z,73.88
2019-03-20T19:16:11.473Z,74.27
2019-03-20T19:18:42.556Z,74.11
2019-03-20T19:21:13.694Z,73.96
2019-03-20T19:23:44.728Z,74.28
2019-03-20T19:26:15.820Z,73.97
2019-03-20T19:28:46.922Z,73.96
2019-03-20T19:31:18.041Z,73.90
2019-03-20T19:33:49.152Z,74.19
2019-03-20T19:36:20.133Z,74.15
2019-03-20T19:38:51.197Z,74.15
2019-03-20T19:41:22.399Z,74.01
2019-03-20T19:43:54.345Z,73.74
2019-03-20T19:46:25.418Z,73.74
2019-03-20T19:48:57.597Z,73.78
2019-03-20T19:51:28.635Z,73.36
2019-03-20T19:53:59.625Z,73.58
2019-03-20T19:56:30.736Z,73.42
2019-03-20T19:59:02.785Z,73.77
2019-03-20T20:01:33.826Z,73.77
2019-03-20T20:04:04.973Z,73.27
2019-03-20T20:06:36.261Z,73.28
2019-03-20T20:09:07.701Z,73.56
2019-03-20T20:11:38.760Z,73.21
2019-03-20T20:14:10.140Z,72.95
2019-03-20T20:16:41.307Z,73.08
2019-03-20T20:19:12.347Z,72.78
2019-03-20T20:21:43.467Z,72.58
2019-03-20T20:24:14.637Z,72.58
2019-03-20T20:26:45.762Z,72.19
2019-03-20T20:29:16.935Z,71.91
2019-03-20T20:31:47.845Z,72.10
2019-03-20T20:34:18.805Z,72.22
2019-03-20T20:36:49.959Z,72.24
2019-03-20T20:39:20.960Z,72.24
2019-03-20T20:41:51.993Z,72.30
2019-03-20T20:44:22.978Z,72.28
2019-03-20T20:46:53.989Z,71.96
2019-03-20T20:49:25.058Z,72.21
2019-03-20T20:51:56.207Z,72.21
2019-03-20T20:54:27.335Z,72.34
2019-03-20T20:56:58.499Z,72.34
2019-03-20T20:59:30.635Z,72.32
2019-03-20T21:02:01.778Z,72.80
2019-03-20T21:04:33.028Z,72.80
2019-03-20T21:07:04.109Z,72.67
2019-03-20T21:09:35.219Z,72.47
2019-03-20T21:12:06.350Z,72.20
2019-03-20T21:14:37.433Z,72.39
2019-03-20T21:17:12.117Z,72.12
2019-03-20T21:19:43.164Z,72.70
2019-03-20T21:22:32.537Z,72.70
2019-03-20T21:25:03.771Z,72.26
2019-03-20T21:28:11.189Z,72.56
2019-03-20T21:30:56.852Z,72.39
2019-03-20T21:33:36.789Z,73.03
2019-03-20T21:36:44.582Z,72.48
2019-03-20T21:39:15.841Z,72.28
2019-03-20T21:42:21.343Z,72.28
2019-03-20T21:45:10.037Z,73.04
2019-03-20T21:47:41.142Z,72.77
2019-03-20T21:50:21.535Z,72.98
2019-03-20T21:52:52.966Z,72.75
2019-03-20T21:55:46.683Z,72.97
2019-03-20T21:58:21.126Z,72.67
2019-03-20T22:01:27.005Z,72.92
2019-03-20T22:03:58.023Z,72.92
2019-03-20T22:06:35.499Z,73.27
2019-03-20T22:09:09.143Z,73.27
2019-03-20T22:12:12.239Z,74.13
2019-03-20T22:14:46.217Z,74.02
2019-03-20T22:17:26.225Z,73.79
2019-03-20T22:20:03.229Z,74.06
2019-03-20T22:23:01.089Z,73.84
2019-03-20T22:25:41.706Z,74.22
2019-03-20T22:28:35.310Z,74.22
2019-03-20T22:31:06.432Z,74.41
2019-03-20T22:34:14.520Z,74.72
2019-03-20T22:36:45.584Z,75.07
2019-03-20T22:39:48.781Z,75.20
2019-03-20T22:42:25.700Z,74.87
2019-03-20T22:45:12.039Z,74.83
2019-03-20T22:48:02.642Z,75.10
2019-03-20T22:50:55.048Z,74.83
2019-03-20T22:54:02.513Z,75.19
2019-03-20T22:56:45.602Z,75.63
2019-03-20T22:59:16.722Z,75.13
2019-03-20T23:02:06.245Z,75.17
2019-03-20T23:04:52.621Z,75.49
2019-03-20T23:07:23.886Z,75.49
2019-03-20T23:09:55.040Z,75.65
2019-03-20T23:12:25.930Z,75.65
2019-03-20T23:14:57.178Z,75.84
2019-03-20T23:17:28.136Z,75.52
2019-03-20T23:19:59.112Z,75.43
2019-03-20T23:22:30.103Z,75.47
2019-03-20T23:25:01.271Z,75.47
2019-03-20T23:27:32.287Z,75.63
2019-03-20T23:30:04.791Z,75.30
2019-03-20T23:32:35.795Z,75.53
2019-03-20T23:35:08.382Z,75.53
2019-03-20T23:37:39.494Z,75.37
2019-03-20T23:40:15.531Z,75.37
2019-03-20T23:42:52.568Z,75.17
2019-03-20T23:45:23.547Z,75.60
2019-03-20T23:48:01.835Z,75.60
2019-03-20T23:50:32.880Z,75.94
2019-03-20T23:53:03.996Z,75.94
2019-03-20T23:55:35.144Z,75.58
2019-03-20T23:58:06.268Z,75.85
